Portland — WDG2201 — position and weather

sailwx.info

Track history (hours):
 
Tides and Currents Weather Stations Pressure Air Temp Water Temp Dewpoint Dewpoint Depression Visibility Wind Speed Wind Dir Waves Ship Positions

Portland

More information available from US FCC via Universal Licensing System and Coast Guard Vessel Documentation Center.

Last reported at 2014-Aug-21 04:24 UTC. Time now 2014-Aug-23 01:34 UTC.
Position N 45°38' W 122°43'.

Length 27 m; draft 4 m.

Type: Towing. MMSI: 367315814.

Date/timePositionNaut miles runAvg speedWind from/ knotsBaromVisibWave heightAir tempDewpointWater temp
2014-Aug-21 04:24N 45°38' W 122°43'0 0.0
2014-Aug-20 06:13N 45°38' W 122°43'0 0.1
2014-Aug-20 05:09N 45°38' W 122°43'5 0.4
2014-Aug-19 16:28N 45°34' W 122°44'0 0.0
2014-Aug-19 13:22N 45°34' W 122°44'0 0.0
2014-Aug-19 09:19N 45°34' W 122°44'0 0.0
2014-Aug-19 07:31N 45°34' W 122°44'0 0.0
2014-Aug-19 06:19N 45°34' W 122°44'0 0.0
2014-Aug-18 20:25N 45°34' W 122°44'0 0.0
2014-Aug-18 16:11N 45°34' W 122°44'1 0.7
2014-Aug-18 15:30N 45°34' W 122°44'5 5.2
2014-Aug-18 14:33N 45°39' W 122°45'0 0.2
2014-Aug-18 13:31N 45°39' W 122°45'0 0.0
2014-Aug-18 12:33N 45°39' W 122°45'0 0.0
2014-Aug-18 11:32N 45°39' W 122°45'0 0.0
2014-Aug-18 10:33N 45°39' W 122°45'0 0.0
2014-Aug-18 09:33N 45°39' W 122°45'0 0.0
2014-Aug-18 08:33N 45°39' W 122°45'0 0.0
2014-Aug-18 07:32N 45°39' W 122°45'0 0.0
2014-Aug-18 06:33N 45°39' W 122°45'0 0.4
2014-Aug-18 05:33N 45°39' W 122°45'0 0.3
2014-Aug-18 04:27N 45°39' W 122°45'0 0.0
2014-Aug-17 18:27N 45°39' W 122°45'0 0.0
2014-Aug-17 17:33N 45°39' W 122°45'0 0.0
2014-Aug-17 16:33N 45°39' W 122°45'1 0.8
2014-Aug-17 15:33N 45°39' W 122°46'1 0.8
2014-Aug-17 14:28N 45°39' W 122°45'0 0.0
2014-Aug-17 13:32N 45°39' W 122°45'0 0.0
2014-Aug-17 12:33N 45°39' W 122°45'0 0.0
2014-Aug-17 11:32N 45°39' W 122°45'0 0.0
2014-Aug-17 10:33N 45°39' W 122°45'0 0.0
2014-Aug-17 09:33N 45°39' W 122°45'0 0.0
2014-Aug-17 08:33N 45°39' W 122°45'0 0.0
2014-Aug-17 07:32N 45°39' W 122°45'1 1.0
2014-Aug-17 06:33N 45°39' W 122°47'5 5.2
2014-Aug-17 05:33N 45°34' W 122°44'0 0.0
2014-Aug-17 04:32N 45°34' W 122°44'0 0.0
2014-Aug-16 21:30N 45°34' W 122°44'3 3.1
2014-Aug-16 20:30N 45°36' W 122°47'3 1.0
2014-Aug-16 17:17N 45°34' W 122°44'0 0.0
2014-Aug-16 10:23N 45°34' W 122°44'0 0.0
2014-Aug-16 09:29N 45°34' W 122°44'0 0.0
2014-Aug-16 08:32N 45°34' W 122°44'0 0.0
2014-Aug-16 07:32N 45°34' W 122°44'0 0.0
2014-Aug-15 16:09N 45°34' W 122°44'0 0.0
2014-Aug-15 15:30N 45°34' W 122°44'0 0.0
2014-Aug-15 14:30N 45°34' W 122°44'5 5.2
2014-Aug-15 13:33N 45°38' W 122°47'2 1.6
2014-Aug-15 12:33N 45°39' W 122°45'0 0.0
2014-Aug-15 11:33N 45°39' W 122°45'0 0.0
2014-Aug-15 10:33N 45°39' W 122°45'0 0.0
2014-Aug-15 09:33N 45°39' W 122°45'0 0.0
2014-Aug-15 08:33N 45°39' W 122°45'2 2.3
2014-Aug-15 07:33N 45°37' W 122°47'4 3.6
2014-Aug-15 06:26N 45°34' W 122°44'0 0.0
2014-Aug-15 05:14N 45°34' W 122°44'0 0.0
2014-Aug-15 04:32N 45°34' W 122°44'0 0.0
2014-Aug-14 22:29N 45°34' W 122°44'0 0.0
2014-Aug-14 21:29N 45°34' W 122°44'0 0.0
2014-Aug-14 20:32N 45°34' W 122°44'0 0.0
2014-Aug-14 19:32N 45°34' W 122°44'0 0.0
2014-Aug-14 18:32N 45°34' W 122°44'0 0.0
2014-Aug-14 17:33N 45°34' W 122°44'1 0.9
2014-Aug-14 16:34N 45°34' W 122°44'0 0.0
2014-Aug-14 15:34N 45°34' W 122°44'1 0.9
2014-Aug-14 14:33N 45°34' W 122°43'0 0.5
2014-Aug-14 13:33N 45°34' W 122°44'0 0.2
2014-Aug-14 12:31N 45°34' W 122°44'0 0.0
2014-Aug-14 11:31N 45°34' W 122°44'2 2.4
2014-Aug-14 10:33N 45°35' W 122°46'3 2.8
2014-Aug-14 09:21N 45°39' W 122°45'0 0.0
2014-Aug-14 08:33N 45°39' W 122°45'0 0.0
2014-Aug-14 07:33N 45°39' W 122°45'0 0.0
2014-Aug-14 06:27N 45°39' W 122°45'0 0.0
2014-Aug-14 05:33N 45°39' W 122°45'1 1.5
2014-Aug-14 04:33N 45°38' W 122°43'2 2.5
2014-Aug-14 03:34N 45°40' W 122°46'1 1.4
2014-Aug-14 02:33N 45°39' W 122°45'0 0.0
2014-Aug-14 01:34N 45°39' W 122°45'0 0.0
2014-Aug-14 00:34N 45°39' W 122°45'4 3.6
2014-Aug-13 23:34N 45°35' W 122°46'2 1.9
2014-Aug-13 22:33N 45°34' W 122°44'0 0.0
2014-Aug-13 21:34N 45°34' W 122°44'0 0.0
2014-Aug-13 20:33N 45°34' W 122°44'0 0.0
2014-Aug-13 19:33N 45°34' W 122°44'0 0.0
2014-Aug-13 18:34N 45°34' W 122°44'0 0.0
2014-Aug-13 17:34N 45°34' W 122°44'0 0.0
2014-Aug-13 16:34N 45°34' W 122°44'2 1.9
2014-Aug-13 15:33N 45°35' W 122°46'4 3.6
2014-Aug-13 14:32N 45°39' W 122°45'0 0.0
2014-Aug-13 13:32N 45°39' W 122°45'0 0.0
2014-Aug-13 12:32N 45°39' W 122°45'0 0.0
2014-Aug-13 11:32N 45°39' W 122°45'0 0.0
2014-Aug-13 10:32N 45°39' W 122°45'0 0.0
2014-Aug-13 09:32N 45°39' W 122°45'0 0.0
2014-Aug-13 08:17N 45°39' W 122°45'0 0.0
2014-Aug-13 07:32N 45°39' W 122°45'2 1.5
2014-Aug-13 06:31N 45°38' W 122°43'0 0.2
2014-Aug-13 05:34N 45°38' W 122°43'1 1.3
2014-Aug-13 04:30N 45°39' W 122°45'0 0.0
2014-Aug-13 03:33N 45°39' W 122°45'0 0.0
2014-Aug-13 02:33N 45°39' W 122°45'0 0.0
2014-Aug-13 01:33N 45°39' W 122°45'3 2.6
2014-Aug-13 00:33N 45°38' W 122°42'2 2.1
2014-Aug-12 23:26N 45°39' W 122°45'1 1.3
2014-Aug-12 22:33N 45°39' W 122°46'5 5.1
2014-Aug-12 21:31N 45°34' W 122°44'5 5.4
2014-Aug-12 20:33N 45°38' W 122°47'0 0.3
2014-Aug-12 19:33N 45°39' W 122°46'1 0.5
2014-Aug-12 18:33N 45°39' W 122°46'0 0.5
2014-Aug-12 17:33N 45°39' W 122°45'3 2.9
2014-Aug-12 16:33N 45°38' W 122°42'2 2.2
2014-Aug-12 15:33N 45°39' W 122°44'1 0.5
2014-Aug-12 14:32N 45°39' W 122°45'0 0.0
2014-Aug-12 13:26N 45°39' W 122°45'0 0.0
2014-Aug-12 12:32N 45°39' W 122°45'0 0.0
2014-Aug-12 11:32N 45°39' W 122°45'0 0.0
2014-Aug-12 10:32N 45°39' W 122°45'0 0.0
2014-Aug-12 09:32N 45°39' W 122°45'0 0.0
2014-Aug-12 08:32N 45°39' W 122°45'0 0.0
2014-Aug-12 07:26N 45°39' W 122°45'2 1.3
2014-Aug-12 06:04N 45°38' W 122°43'6 1.7
2014-Aug-12 02:16N 45°32' W 122°41'3 0.5
2014-Aug-11 21:17N 45°34' W 122°44'0 0.0
2014-Aug-11 20:32N 45°34' W 122°44'0 0.0
2014-Aug-11 18:26N 45°34' W 122°44'0 0.0
2014-Aug-11 17:17N 45°34' W 122°44'0 0.0
2014-Aug-11 16:26N 45°34' W 122°44'0 0.0
2014-Aug-11 12:23N 45°34' W 122°44'1 0.4
2014-Aug-11 10:31N 45°34' W 122°44'9 9.3
2014-Aug-11 09:32N 45°43' W 122°46'1210.1
2014-Aug-11 08:22N 45°55' W 122°48'1210.4
2014-Aug-11 07:15N 46°05' W 122°56'0 0.3
2014-Aug-11 06:29N 46°05' W 122°56'4 4.8
2014-Aug-11 05:32N 46°02' W 122°52'1 0.6
2014-Aug-11 04:30N 46°02' W 122°53'  
Track history (hours):
 
Tides and Currents Weather Stations Pressure Air Temp Water Temp Dewpoint Dewpoint Depression Visibility Wind Speed Wind Dir Waves Ship Positions

Portland

More information available from US FCC via Universal Licensing System and Coast Guard Vessel Documentation Center.

Last reported at 2014-Aug-21 04:24 UTC. Time now 2014-Aug-23 01:34 UTC.
Position N 45°38' W 122°43'.

Length 27 m; draft 4 m.

Type: Towing. MMSI: 367315814.

Date/timePositionNaut miles runAvg speedWind from/ knotsBaromVisibWave heightAir tempDewpointWater temp
2014-Aug-21 04:24N 45°38' W 122°43'0 0.0
2014-Aug-20 06:13N 45°38' W 122°43'0 0.1
2014-Aug-20 05:09N 45°38' W 122°43'5 0.4
2014-Aug-19 16:28N 45°34' W 122°44'0 0.0
2014-Aug-19 13:22N 45°34' W 122°44'0 0.0
2014-Aug-19 09:19N 45°34' W 122°44'0 0.0
2014-Aug-19 07:31N 45°34' W 122°44'0 0.0
2014-Aug-19 06:19N 45°34' W 122°44'0 0.0
2014-Aug-18 20:25N 45°34' W 122°44'0 0.0
2014-Aug-18 16:11N 45°34' W 122°44'1 0.7
2014-Aug-18 15:30N 45°34' W 122°44'5 5.2
2014-Aug-18 14:33N 45°39' W 122°45'0 0.2
2014-Aug-18 13:31N 45°39' W 122°45'0 0.0
2014-Aug-18 12:33N 45°39' W 122°45'0 0.0
2014-Aug-18 11:32N 45°39' W 122°45'0 0.0
2014-Aug-18 10:33N 45°39' W 122°45'0 0.0
2014-Aug-18 09:33N 45°39' W 122°45'0 0.0
2014-Aug-18 08:33N 45°39' W 122°45'0 0.0
2014-Aug-18 07:32N 45°39' W 122°45'0 0.0
2014-Aug-18 06:33N 45°39' W 122°45'0 0.4
2014-Aug-18 05:33N 45°39' W 122°45'0 0.3
2014-Aug-18 04:27N 45°39' W 122°45'0 0.0
2014-Aug-17 18:27N 45°39' W 122°45'0 0.0
2014-Aug-17 17:33N 45°39' W 122°45'0 0.0
2014-Aug-17 16:33N 45°39' W 122°45'1 0.8
2014-Aug-17 15:33N 45°39' W 122°46'1 0.8
2014-Aug-17 14:28N 45°39' W 122°45'0 0.0
2014-Aug-17 13:32N 45°39' W 122°45'0 0.0
2014-Aug-17 12:33N 45°39' W 122°45'0 0.0
2014-Aug-17 11:32N 45°39' W 122°45'0 0.0
2014-Aug-17 10:33N 45°39' W 122°45'0 0.0
2014-Aug-17 09:33N 45°39' W 122°45'0 0.0
2014-Aug-17 08:33N 45°39' W 122°45'0 0.0
2014-Aug-17 07:32N 45°39' W 122°45'1 1.0
2014-Aug-17 06:33N 45°39' W 122°47'5 5.2
2014-Aug-17 05:33N 45°34' W 122°44'0 0.0
2014-Aug-17 04:32N 45°34' W 122°44'0 0.0
2014-Aug-16 21:30N 45°34' W 122°44'3 3.1
2014-Aug-16 20:30N 45°36' W 122°47'3 1.0
2014-Aug-16 17:17N 45°34' W 122°44'0 0.0
2014-Aug-16 10:23N 45°34' W 122°44'0 0.0
2014-Aug-16 09:29N 45°34' W 122°44'0 0.0
2014-Aug-16 08:32N 45°34' W 122°44'0 0.0
2014-Aug-16 07:32N 45°34' W 122°44'0 0.0
2014-Aug-15 16:09N 45°34' W 122°44'0 0.0
2014-Aug-15 15:30N 45°34' W 122°44'0 0.0
2014-Aug-15 14:30N 45°34' W 122°44'5 5.2
2014-Aug-15 13:33N 45°38' W 122°47'2 1.6
2014-Aug-15 12:33N 45°39' W 122°45'0 0.0
2014-Aug-15 11:33N 45°39' W 122°45'0 0.0
2014-Aug-15 10:33N 45°39' W 122°45'0 0.0
2014-Aug-15 09:33N 45°39' W 122°45'0 0.0
2014-Aug-15 08:33N 45°39' W 122°45'2 2.3
2014-Aug-15 07:33N 45°37' W 122°47'4 3.6
2014-Aug-15 06:26N 45°34' W 122°44'0 0.0
2014-Aug-15 05:14N 45°34' W 122°44'0 0.0
2014-Aug-15 04:32N 45°34' W 122°44'0 0.0
2014-Aug-14 22:29N 45°34' W 122°44'0 0.0
2014-Aug-14 21:29N 45°34' W 122°44'0 0.0
2014-Aug-14 20:32N 45°34' W 122°44'0 0.0
2014-Aug-14 19:32N 45°34' W 122°44'0 0.0
2014-Aug-14 18:32N 45°34' W 122°44'0 0.0
2014-Aug-14 17:33N 45°34' W 122°44'1 0.9
2014-Aug-14 16:34N 45°34' W 122°44'0 0.0
2014-Aug-14 15:34N 45°34' W 122°44'1 0.9
2014-Aug-14 14:33N 45°34' W 122°43'0 0.5
2014-Aug-14 13:33N 45°34' W 122°44'0 0.2
2014-Aug-14 12:31N 45°34' W 122°44'0 0.0
2014-Aug-14 11:31N 45°34' W 122°44'2 2.4
2014-Aug-14 10:33N 45°35' W 122°46'3 2.8
2014-Aug-14 09:21N 45°39' W 122°45'0 0.0
2014-Aug-14 08:33N 45°39' W 122°45'0 0.0
2014-Aug-14 07:33N 45°39' W 122°45'0 0.0
2014-Aug-14 06:27N 45°39' W 122°45'0 0.0
2014-Aug-14 05:33N 45°39' W 122°45'1 1.5
2014-Aug-14 04:33N 45°38' W 122°43'2 2.5
2014-Aug-14 03:34N 45°40' W 122°46'1 1.4
2014-Aug-14 02:33N 45°39' W 122°45'0 0.0
2014-Aug-14 01:34N 45°39' W 122°45'0 0.0
2014-Aug-14 00:34N 45°39' W 122°45'4 3.6
2014-Aug-13 23:34N 45°35' W 122°46'2 1.9
2014-Aug-13 22:33N 45°34' W 122°44'0 0.0
2014-Aug-13 21:34N 45°34' W 122°44'0 0.0
2014-Aug-13 20:33N 45°34' W 122°44'0 0.0
2014-Aug-13 19:33N 45°34' W 122°44'0 0.0
2014-Aug-13 18:34N 45°34' W 122°44'0 0.0
2014-Aug-13 17:34N 45°34' W 122°44'0 0.0
2014-Aug-13 16:34N 45°34' W 122°44'2 1.9
2014-Aug-13 15:33N 45°35' W 122°46'4 3.6
2014-Aug-13 14:32N 45°39' W 122°45'0 0.0
2014-Aug-13 13:32N 45°39' W 122°45'0 0.0
2014-Aug-13 12:32N 45°39' W 122°45'0 0.0
2014-Aug-13 11:32N 45°39' W 122°45'0 0.0
2014-Aug-13 10:32N 45°39' W 122°45'0 0.0
2014-Aug-13 09:32N 45°39' W 122°45'0 0.0
2014-Aug-13 08:17N 45°39' W 122°45'0 0.0
2014-Aug-13 07:32N 45°39' W 122°45'2 1.5
2014-Aug-13 06:31N 45°38' W 122°43'0 0.2
2014-Aug-13 05:34N 45°38' W 122°43'1 1.3
2014-Aug-13 04:30N 45°39' W 122°45'0 0.0
2014-Aug-13 03:33N 45°39' W 122°45'0 0.0
2014-Aug-13 02:33N 45°39' W 122°45'0 0.0
2014-Aug-13 01:33N 45°39' W 122°45'3 2.6
2014-Aug-13 00:33N 45°38' W 122°42'2 2.1
2014-Aug-12 23:26N 45°39' W 122°45'1 1.3
2014-Aug-12 22:33N 45°39' W 122°46'5 5.1
2014-Aug-12 21:31N 45°34' W 122°44'5 5.4
2014-Aug-12 20:33N 45°38' W 122°47'0 0.3
2014-Aug-12 19:33N 45°39' W 122°46'1 0.5
2014-Aug-12 18:33N 45°39' W 122°46'0 0.5
2014-Aug-12 17:33N 45°39' W 122°45'3 2.9
2014-Aug-12 16:33N 45°38' W 122°42'2 2.2
2014-Aug-12 15:33N 45°39' W 122°44'1 0.5
2014-Aug-12 14:32N 45°39' W 122°45'0 0.0
2014-Aug-12 13:26N 45°39' W 122°45'0 0.0
2014-Aug-12 12:32N 45°39' W 122°45'0 0.0
2014-Aug-12 11:32N 45°39' W 122°45'0 0.0
2014-Aug-12 10:32N 45°39' W 122°45'0 0.0
2014-Aug-12 09:32N 45°39' W 122°45'0 0.0
2014-Aug-12 08:32N 45°39' W 122°45'0 0.0
2014-Aug-12 07:26N 45°39' W 122°45'2 1.3
2014-Aug-12 06:04N 45°38' W 122°43'6 1.7
2014-Aug-12 02:16N 45°32' W 122°41'3 0.5
2014-Aug-11 21:17N 45°34' W 122°44'0 0.0
2014-Aug-11 20:32N 45°34' W 122°44'0 0.0
2014-Aug-11 18:26N 45°34' W 122°44'0 0.0
2014-Aug-11 17:17N 45°34' W 122°44'0 0.0
2014-Aug-11 16:26N 45°34' W 122°44'0 0.0
2014-Aug-11 12:23N 45°34' W 122°44'1 0.4
2014-Aug-11 10:31N 45°34' W 122°44'9 9.3
2014-Aug-11 09:32N 45°43' W 122°46'1210.1
2014-Aug-11 08:22N 45°55' W 122°48'1210.4
2014-Aug-11 07:15N 46°05' W 122°56'0 0.3
2014-Aug-11 06:29N 46°05' W 122°56'4 4.8
2014-Aug-11 05:32N 46°02' W 122°52'1 0.6
2014-Aug-11 04:30N 46°02' W 122°53'  

Dump ship's entire track history